Time;durP1;ratioP1;P1;durP2;ratioP2;P2;SDS_P1;SDS_P2;PMS_P1;PMS_P2;Temp;Humidity;BMP_temperature;BMP_pressure;BME280_temperature;BME280_humidity;BME280_pressure;Samples;Min_cycle;Max_cycle;Signal;HPM_P1;HPM_P2
2022/10/10 00:01:53;;;;;;;;;17.00;13.33;;;;;;;;5017927;28;46159;-68
2022/10/10 00:04:18;;;;;;;;;15.33;12.00;;;;;;;;5014676;28;46046;-69
2022/10/10 00:06:43;;;;;;;;;18.33;12.33;;;;;;;;5017979;28;45387;-68
2022/10/10 00:09:08;;;;;;;;;13.00;11.00;;;;;;;;5018072;28;45456;-68
2022/10/10 00:11:33;;;;;;;;;9.67;9.67;;;;;;;;5017937;28;46458;-68
2022/10/10 00:13:59;;;;;;;;;15.00;11.67;;;;;;;;5017988;28;45444;-69
2022/10/10 00:16:24;;;;;;;;;11.67;9.67;;;;;;;;5017886;28;45307;-68
2022/10/10 00:18:50;;;;;;;;;14.33;10.00;;;;;;;;5017809;28;45441;-68
2022/10/10 00:21:16;;;;;;;;;11.67;11.33;;;;;;;;5010305;28;45449;-68
2022/10/10 00:23:41;;;;;;;;;15.00;13.00;;;;;;;;5016874;28;45266;-68
2022/10/10 00:26:06;;;;;;;;;13.33;12.00;;;;;;;;5017758;28;45409;-69
2022/10/10 00:28:31;;;;;;;;;11.33;9.33;;;;;;;;5017695;28;45342;-68
2022/10/10 00:30:57;;;;;;;;;13.67;9.67;;;;;;;;5017624;28;45431;-69
2022/10/10 00:33:22;;;;;;;;;11.33;11.00;;;;;;;;5017284;28;45397;-68
2022/10/10 00:35:48;;;;;;;;;10.67;10.67;;;;;;;;5009503;28;45247;-68
2022/10/10 00:38:13;;;;;;;;;8.67;8.67;;;;;;;;5017965;28;45359;-69
2022/10/10 00:40:49;;;;;;;;;9.33;9.33;;;;;;;;5021564;28;47214;-69
2022/10/10 00:43:15;;;;;;;;;14.00;10.33;;;;;;;;5022245;28;45433;-69
2022/10/10 00:45:41;;;;;;;;;13.33;11.00;;;;;;;;5021499;28;45354;-69
2022/10/10 00:48:06;;;;;;;;;12.67;10.00;;;;;;;;5017338;28;45372;-66
2022/10/10 00:50:34;;;;;;;;;8.00;8.00;;;;;;;;5016602;28;46354;-69
2022/10/10 00:53:00;;;;;;;;;9.67;7.67;;;;;;;;5011176;28;45343;-69
2022/10/10 00:55:25;;;;;;;;;8.67;7.33;;;;;;;;5017036;28;45274;-68
2022/10/10 00:57:51;;;;;;;;;11.00;9.00;;;;;;;;5017610;28;45453;-72
2022/10/10 01:00:16;;;;;;;;;10.33;8.67;;;;;;;;5017100;28;46639;-67
2022/10/10 01:02:41;;;;;;;;;10.00;9.67;;;;;;;;5017098;28;45254;-67
2022/10/10 01:05:07;;;;;;;;;12.00;9.00;;;;;;;;5017004;28;45504;-67
2022/10/10 01:07:33;;;;;;;;;10.33;9.00;;;;;;;;5016969;28;45297;-70
2022/10/10 01:10:01;;;;;;;;;10.00;9.00;;;;;;;;5015832;28;45785;-71
2022/10/10 01:12:35;;;;;;;;;11.00;10.67;;;;;;;;5020655;28;45358;-70
2022/10/10 01:15:32;;;;;;;;;9.00;8.00;;;;;;;;5020745;28;45329;-69
2022/10/10 01:18:02;;;;;;;;;11.33;9.00;;;;;;;;4998548;28;45495;-71
2022/10/10 01:20:27;;;;;;;;;10.00;8.33;;;;;;;;4997229;28;45405;-69
2022/10/10 01:23:11;;;;;;;;;12.67;10.33;;;;;;;;4998598;28;45474;-69
2022/10/10 01:25:44;;;;;;;;;9.33;9.33;;;;;;;;4996947;28;45939;-68
2022/10/10 01:28:20;;;;;;;;;11.33;9.33;;;;;;;;4978860;28;45483;-67
2022/10/10 01:30:47;;;;;;;;;11.33;10.67;;;;;;;;4984158;28;45748;-68
2022/10/10 01:33:14;;;;;;;;;11.33;7.00;;;;;;;;4998218;28;45352;-67
2022/10/10 01:35:42;;;;;;;;;9.00;9.00;;;;;;;;4998176;28;45804;-67
2022/10/10 01:38:12;;;;;;;;;10.00;8.00;;;;;;;;4998263;28;45359;-68
2022/10/10 01:40:46;;;;;;;;;10.00;8.00;;;;;;;;4997528;28;45489;-67
2022/10/10 01:43:11;;;;;;;;;9.67;8.67;;;;;;;;4996458;28;46925;-70
2022/10/10 01:45:36;;;;;;;;;8.33;7.67;;;;;;;;4998294;28;45605;-71
2022/10/10 01:48:04;;;;;;;;;9.67;7.33;;;;;;;;4998412;28;45316;-70
2022/10/10 01:50:32;;;;;;;;;11.00;10.00;;;;;;;;4997855;28;46482;-69
2022/10/10 01:53:12;;;;;;;;;11.33;11.00;;;;;;;;5003542;28;45558;-68
2022/10/10 01:55:45;;;;;;;;;9.00;9.00;;;;;;;;5019743;28;45385;-71
2022/10/10 01:58:29;;;;;;;;;10.00;10.00;;;;;;;;5017363;28;45225;-71
2022/10/10 02:01:05;;;;;;;;;7.00;7.00;;;;;;;;5019902;28;45677;-67
2022/10/10 02:03:36;;;;;;;;;8.33;7.00;;;;;;;;5019218;28;45248;-66
2022/10/10 02:06:05;;;;;;;;;10.33;8.00;;;;;;;;5000131;28;45421;-66
2022/10/10 02:08:35;;;;;;;;;7.33;7.33;;;;;;;;5000189;28;45306;-67
2022/10/10 02:11:02;;;;;;;;;10.33;7.33;;;;;;;;5000057;28;46471;-68
2022/10/10 02:13:47;;;;;;;;;10.00;8.33;;;;;;;;4999715;28;45724;-69
2022/10/10 02:16:15;;;;;;;;;12.00;10.00;;;;;;;;5012977;28;45468;-68
2022/10/10 02:18:44;;;;;;;;;11.67;8.67;;;;;;;;5019897;28;45516;-67
2022/10/10 02:21:10;;;;;;;;;9.00;9.00;;;;;;;;5018551;28;47135;-67
2022/10/10 02:23:36;;;;;;;;;11.00;9.67;;;;;;;;5019514;28;45309;-68
2022/10/10 02:26:02;;;;;;;;;11.33;10.00;;;;;;;;5019497;28;45365;-67
2022/10/10 02:28:45;;;;;;;;;11.00;11.00;;;;;;;;5019352;28;45389;-67
2022/10/10 02:31:13;;;;;;;;;8.00;8.00;;;;;;;;5017288;28;46142;-69
2022/10/10 02:33:42;;;;;;;;;10.00;9.00;;;;;;;;5018447;28;45212;-68
2022/10/10 02:36:08;;;;;;;;;10.33;9.67;;;;;;;;5019003;28;45310;-68
2022/10/10 02:38:34;;;;;;;;;12.00;10.33;;;;;;;;5019491;28;45333;-68
2022/10/10 02:41:02;;;;;;;;;10.00;8.00;;;;;;;;5019265;28;46622;-69
2022/10/10 02:43:28;;;;;;;;;10.67;9.67;;;;;;;;5019293;28;45317;-68
2022/10/10 02:45:53;;;;;;;;;11.67;8.00;;;;;;;;5019501;28;45285;-70
2022/10/10 02:48:18;;;;;;;;;8.33;7.67;;;;;;;;5017332;28;45871;-70
2022/10/10 02:50:44;;;;;;;;;9.33;8.00;;;;;;;;5018843;28;45283;-70
2022/10/10 02:53:09;;;;;;;;;9.67;8.67;;;;;;;;5019095;28;45500;-70
2022/10/10 02:55:34;;;;;;;;;9.33;9.00;;;;;;;;5019287;28;45746;-68
2022/10/10 02:57:59;;;;;;;;;8.00;8.00;;;;;;;;5019461;28;45372;-69
2022/10/10 03:00:25;;;;;;;;;8.00;8.00;;;;;;;;5018648;28;45411;-70
2022/10/10 03:02:50;;;;;;;;;11.00;8.00;;;;;;;;5018870;28;45378;-68
2022/10/10 03:05:15;;;;;;;;;9.75;9.00;;;;;;;;5013631;28;45393;-69
2022/10/10 03:07:41;;;;;;;;;9.00;7.00;;;;;;;;5019309;28;45267;-68
2022/10/10 03:10:06;;;;;;;;;9.33;9.33;;;;;;;;5018801;28;46471;-69
2022/10/10 03:12:32;;;;;;;;;11.00;9.67;;;;;;;;5018766;28;45254;-67
2022/10/10 03:14:58;;;;;;;;;10.33;7.67;;;;;;;;5018406;28;45452;-69
2022/10/10 03:17:23;;;;;;;;;8.00;8.00;;;;;;;;5019073;28;45660;-68
2022/10/10 03:19:48;;;;;;;;;11.00;11.00;;;;;;;;5018850;28;46481;-68
2022/10/10 03:22:13;;;;;;;;;11.67;10.67;;;;;;;;5018627;28;45377;-68
2022/10/10 03:24:38;;;;;;;;;9.67;7.67;;;;;;;;5013242;28;45501;-68
2022/10/10 03:27:04;;;;;;;;;8.67;7.00;;;;;;;;5018727;28;45366;-69
2022/10/10 03:29:29;;;;;;;;;10.00;8.00;;;;;;;;5018264;28;46067;-69
2022/10/10 03:31:54;;;;;;;;;12.00;9.00;;;;;;;;5017823;28;45250;-69
2022/10/10 03:34:19;;;;;;;;;10.67;9.33;;;;;;;;5018259;28;45310;-69
2022/10/10 03:36:44;;;;;;;;;29.67;28.33;;;;;;;;5018323;28;45856;-69
2022/10/10 03:39:10;;;;;;;;;12.00;9.00;;;;;;;;5018386;28;45378;-69
2022/10/10 03:41:35;;;;;;;;;9.00;7.00;;;;;;;;5014850;28;45729;-69
2022/10/10 03:44:00;;;;;;;;;11.33;8.67;;;;;;;;5016758;28;45402;-69
2022/10/10 03:46:26;;;;;;;;;10.67;8.00;;;;;;;;5018613;28;45808;-70
2022/10/10 03:48:51;;;;;;;;;13.00;10.67;;;;;;;;5018237;28;46476;-73
2022/10/10 03:51:16;;;;;;;;;10.33;9.00;;;;;;;;5017804;28;45463;-72
2022/10/10 03:53:41;;;;;;;;;10.00;8.00;;;;;;;;5018158;28;45373;-72
2022/10/10 03:56:07;;;;;;;;;9.00;7.67;;;;;;;;5018202;28;45453;-72
2022/10/10 03:58:32;;;;;;;;;11.33;10.00;;;;;;;;5017095;28;46217;-72
2022/10/10 04:00:58;;;;;;;;;9.33;9.33;;;;;;;;5016261;28;45322;-71
2022/10/10 04:03:24;;;;;;;;;12.00;8.00;;;;;;;;5017705;28;45425;-72
2022/10/10 04:05:49;;;;;;;;;9.33;8.00;;;;;;;;5017921;28;45439;-71
2022/10/10 04:08:15;;;;;;;;;10.67;9.67;;;;;;;;5018157;28;45440;-71
2022/10/10 04:10:40;;;;;;;;;10.00;8.00;;;;;;;;5017417;28;45170;-68
2022/10/10 04:13:05;;;;;;;;;10.33;9.00;;;;;;;;5018368;28;45741;-67
2022/10/10 04:15:31;;;;;;;;;9.33;8.67;;;;;;;;5015067;28;45443;-67
2022/10/10 04:17:56;;;;;;;;;13.00;11.67;;;;;;;;5017385;28;46411;-67
2022/10/10 04:20:22;;;;;;;;;11.33;8.33;;;;;;;;5017748;28;45511;-67
2022/10/10 04:22:47;;;;;;;;;9.67;8.67;;;;;;;;5017754;28;45417;-67
2022/10/10 04:25:12;;;;;;;;;11.00;9.33;;;;;;;;5017926;28;45331;-67
2022/10/10 04:27:37;;;;;;;;;8.67;7.00;;;;;;;;5017338;28;45571;-67
2022/10/10 04:30:03;;;;;;;;;9.67;8.33;;;;;;;;5017700;28;45407;-67
2022/10/10 04:32:28;;;;;;;;;10.33;8.33;;;;;;;;5012702;28;45530;-67
2022/10/10 04:34:54;;;;;;;;;15.00;10.00;;;;;;;;5017641;28;45503;-67
2022/10/10 04:37:19;;;;;;;;;11.33;9.33;;;;;;;;5017317;28;46538;-67
2022/10/10 04:39:44;;;;;;;;;10.67;9.33;;;;;;;;5017523;28;45294;-67
2022/10/10 04:42:10;;;;;;;;;10.00;8.67;;;;;;;;5017610;28;45242;-67
2022/10/10 04:44:35;;;;;;;;;13.33;10.00;;;;;;;;5017360;28;45420;-67
2022/10/10 04:47:01;;;;;;;;;10.00;8.33;;;;;;;;5017124;28;45524;-67
2022/10/10 04:49:26;;;;;;;;;11.33;10.00;;;;;;;;5012389;28;45423;-67
2022/10/10 04:51:51;;;;;;;;;13.00;8.75;;;;;;;;5017193;28;45388;-67
2022/10/10 04:54:16;;;;;;;;;8.00;8.00;;;;;;;;5017315;28;45364;-68
2022/10/10 04:56:42;;;;;;;;;11.67;8.67;;;;;;;;5017364;28;46611;-67
2022/10/10 04:59:08;;;;;;;;;11.00;10.00;;;;;;;;5017027;28;45401;-67
2022/10/10 05:01:33;;;;;;;;;11.67;11.67;;;;;;;;5016521;28;45370;-68
2022/10/10 05:03:59;;;;;;;;;11.00;9.00;;;;;;;;5017453;28;45289;-66
2022/10/10 05:06:24;;;;;;;;;14.33;12.67;;;;;;;;5016614;28;45578;-68
2022/10/10 05:08:49;;;;;;;;;10.33;10.00;;;;;;;;5014304;28;45455;-67
2022/10/10 05:11:14;;;;;;;;;12.33;11.33;;;;;;;;5016908;28;45953;-67
2022/10/10 05:13:40;;;;;;;;;16.33;12.33;;;;;;;;5017395;28;45373;-67
2022/10/10 05:16:05;;;;;;;;;17.67;10.33;;;;;;;;5016893;28;45361;-67
2022/10/10 05:18:30;;;;;;;;;18.00;15.00;;;;;;;;5017084;28;45195;-67
2022/10/10 05:20:55;;;;;;;;;33.00;28.00;;;;;;;;5016743;28;45393;-65
2022/10/10 05:23:21;;;;;;;;;12.33;11.00;;;;;;;;5016591;28;45447;-66
2022/10/10 05:25:49;;;;;;;;;18.67;15.67;;;;;;;;5013969;28;45486;-68
2022/10/10 05:28:15;;;;;;;;;15.00;10.00;;;;;;;;5016385;28;45313;-68
2022/10/10 05:30:40;;;;;;;;;15.00;12.67;;;;;;;;5016183;28;45397;-69
2022/10/10 05:33:05;;;;;;;;;18.67;16.67;;;;;;;;5016805;28;45289;-68
2022/10/10 05:35:30;;;;;;;;;10.00;10.00;;;;;;;;5015988;28;46718;-68
2022/10/10 05:37:56;;;;;;;;;13.33;11.33;;;;;;;;5016648;28;45362;-68
2022/10/10 05:40:21;;;;;;;;;16.33;15.67;;;;;;;;5016951;28;45358;-69
2022/10/10 05:42:46;;;;;;;;;13.33;13.33;;;;;;;;5013538;28;45425;-69
2022/10/10 05:45:12;;;;;;;;;16.67;14.33;;;;;;;;5016303;28;46433;-68
2022/10/10 05:47:37;;;;;;;;;21.67;21.33;;;;;;;;5015949;28;45326;-68
2022/10/10 05:50:02;;;;;;;;;18.67;18.67;;;;;;;;5016330;28;45427;-68
2022/10/10 05:52:28;;;;;;;;;17.33;15.33;;;;;;;;5016470;28;45400;-68
2022/10/10 05:54:53;;;;;;;;;16.33;14.00;;;;;;;;5016585;28;45266;-68
2022/10/10 05:57:18;;;;;;;;;14.33;12.67;;;;;;;;5026113;28;45535;-68
2022/10/10 05:59:43;;;;;;;;;14.00;12.67;;;;;;;;5025567;28;45498;-69
2022/10/10 06:02:10;;;;;;;;;16.00;15.00;;;;;;;;5040377;28;45341;-69
2022/10/10 06:04:35;;;;;;;;;15.67;12.00;;;;;;;;5039711;28;45517;-69
2022/10/10 06:07:01;;;;;;;;;17.67;14.33;;;;;;;;5030912;28;45397;-68
2022/10/10 06:09:26;;;;;;;;;18.00;16.67;;;;;;;;5019595;28;45206;-68
2022/10/10 06:11:51;;;;;;;;;12.67;12.67;;;;;;;;5019895;28;45513;-68
2022/10/10 06:14:16;;;;;;;;;20.33;13.33;;;;;;;;5017793;28;45423;-68
2022/10/10 06:16:44;;;;;;;;;14.33;14.33;;;;;;;;5007991;28;45504;-68
2022/10/10 06:19:09;;;;;;;;;19.67;19.67;;;;;;;;5019785;28;45490;-67
2022/10/10 06:21:34;;;;;;;;;17.33;13.67;;;;;;;;5018348;28;45530;-67
2022/10/10 06:23:59;;;;;;;;;12.33;12.00;;;;;;;;5018607;28;46447;-67
2022/10/10 06:26:24;;;;;;;;;12.00;9.67;;;;;;;;5019187;28;45349;-67
2022/10/10 06:28:50;;;;;;;;;12.00;10.00;;;;;;;;5019235;28;45479;-68
2022/10/10 06:31:15;;;;;;;;;15.67;11.00;;;;;;;;5019853;28;45445;-67
2022/10/10 06:33:42;;;;;;;;;19.67;17.00;;;;;;;;5013615;28;46035;-67
2022/10/10 06:36:07;;;;;;;;;10.33;10.33;;;;;;;;5019290;28;45395;-67
2022/10/10 06:38:39;;;;;;;;;12.00;12.00;;;;;;;;5019017;28;45341;-67
2022/10/10 06:41:05;;;;;;;;;10.67;10.67;;;;;;;;5018997;28;45446;-67
2022/10/10 06:43:31;;;;;;;;;14.67;13.00;;;;;;;;5019140;28;45629;-68
2022/10/10 06:45:57;;;;;;;;;16.33;13.00;;;;;;;;5019375;28;45283;-67
2022/10/10 06:48:22;;;;;;;;;12.67;9.67;;;;;;;;5018760;28;45516;-68
2022/10/10 06:50:58;;;;;;;;;14.33;11.00;;;;;;;;5018781;28;45442;-67
2022/10/10 06:53:23;;;;;;;;;15.67;11.67;;;;;;;;5012121;28;45840;-66
2022/10/10 06:55:48;;;;;;;;;14.67;10.33;;;;;;;;5018862;28;45287;-68
2022/10/10 06:58:13;;;;;;;;;17.00;14.00;;;;;;;;5019382;28;45447;-68
2022/10/10 07:00:39;;;;;;;;;12.33;9.00;;;;;;;;5017761;28;45420;-68
2022/10/10 07:03:04;;;;;;;;;14.67;12.00;;;;;;;;5018088;28;47453;-68
2022/10/10 07:05:29;;;;;;;;;22.00;18.33;;;;;;;;5018413;28;45374;-67
2022/10/10 07:07:54;;;;;;;;;22.00;19.67;;;;;;;;5018810;28;45326;-67
2022/10/10 07:10:20;;;;;;;;;18.00;12.00;;;;;;;;5015815;28;45694;-67
2022/10/10 07:12:45;;;;;;;;;12.00;12.00;;;;;;;;5018443;28;47222;-67
2022/10/10 07:15:10;;;;;;;;;16.67;15.00;;;;;;;;5018193;28;45356;-67
2022/10/10 07:17:36;;;;;;;;;21.00;16.67;;;;;;;;5013379;28;45231;-67
2022/10/10 07:20:01;;;;;;;;;11.33;11.00;;;;;;;;5000982;28;45393;-67
2022/10/10 07:22:26;;;;;;;;;21.33;16.00;;;;;;;;5002708;28;46349;-67
2022/10/10 07:24:51;;;;;;;;;15.67;11.33;;;;;;;;5018316;28;45362;-67
2022/10/10 07:27:17;;;;;;;;;14.00;13.33;;;;;;;;5018487;28;45310;-67
2022/10/10 07:29:42;;;;;;;;;11.33;11.00;;;;;;;;5018731;28;45544;-68
2022/10/10 07:32:07;;;;;;;;;21.33;16.00;;;;;;;;5017144;28;47235;-67
2022/10/10 07:34:34;;;;;;;;;13.00;11.00;;;;;;;;5018408;28;45397;-68
2022/10/10 07:37:00;;;;;;;;;15.33;11.67;;;;;;;;5018705;28;45464;-67
2022/10/10 07:39:25;;;;;;;;;14.33;14.33;;;;;;;;5002970;28;45721;-68
2022/10/10 07:41:50;;;;;;;;;14.00;11.33;;;;;;;;4998114;28;46228;-67
2022/10/10 07:44:16;;;;;;;;;24.67;21.33;;;;;;;;5007189;28;45365;-67
2022/10/10 07:46:41;;;;;;;;;16.33;13.00;;;;;;;;5018343;28;45325;-67
2022/10/10 07:49:07;;;;;;;;;16.33;16.33;;;;;;;;5018470;28;45456;-68
2022/10/10 07:51:32;;;;;;;;;25.33;23.00;;;;;;;;5017948;28;46415;-69
2022/10/10 07:53:58;;;;;;;;;17.33;13.67;;;;;;;;5018047;28;45457;-68
2022/10/10 07:56:23;;;;;;;;;24.00;19.00;;;;;;;;5020199;28;45437;-69
2022/10/10 07:58:49;;;;;;;;;16.33;14.00;;;;;;;;5030471;28;45364;-71
2022/10/10 08:01:14;;;;;;;;;17.33;14.00;;;;;;;;5025047;28;47362;-67
2022/10/10 08:03:39;;;;;;;;;15.33;14.33;;;;;;;;5016291;28;45730;-74
2022/10/10 08:06:06;;;;;;;;;20.00;18.67;;;;;;;;5017317;28;45436;-69
2022/10/10 08:08:31;;;;;;;;;13.00;13.00;;;;;;;;5017906;28;45484;-66
2022/10/10 08:10:57;;;;;;;;;13.00;12.67;;;;;;;;5017936;28;45329;-75
2022/10/10 08:13:22;;;;;;;;;18.33;15.00;;;;;;;;5017703;28;45638;-68
2022/10/10 08:15:49;;;;;;;;;17.67;15.33;;;;;;;;5017817;28;45609;-70
2022/10/10 08:18:14;;;;;;;;;16.67;16.00;;;;;;;;5017744;28;45302;-74
2022/10/10 08:20:39;;;;;;;;;13.33;13.33;;;;;;;;5009789;28;45520;-70
2022/10/10 08:23:04;;;;;;;;;13.33;12.00;;;;;;;;5011959;28;45433;-74
2022/10/10 08:25:30;;;;;;;;;16.00;13.00;;;;;;;;5017308;28;45447;-67
2022/10/10 08:27:55;;;;;;;;;13.33;12.67;;;;;;;;5017376;28;45524;-68
2022/10/10 08:30:20;;;;;;;;;17.00;12.67;;;;;;;;5017452;28;45552;-68
2022/10/10 08:32:45;;;;;;;;;14.00;10.67;;;;;;;;5017079;28;45429;-69
2022/10/10 08:35:10;;;;;;;;;16.00;11.67;;;;;;;;5016357;28;45424;-74
2022/10/10 08:37:36;;;;;;;;;17.67;15.33;;;;;;;;5017326;28;45344;-70
2022/10/10 08:40:01;;;;;;;;;17.33;17.00;;;;;;;;5014766;28;46355;-68
2022/10/10 08:42:33;;;;;;;;;12.67;12.33;;;;;;;;5017668;28;45322;-67
2022/10/10 08:45:01;;;;;;;;;14.00;10.33;;;;;;;;5017117;28;47077;-72
2022/10/10 08:47:38;;;;;;;;;13.67;11.67;;;;;;;;5017686;28;45310;-66
2022/10/10 08:50:15;;;;;;;;;15.67;11.33;;;;;;;;5017089;28;46085;-69
2022/10/10 08:52:44;;;;;;;;;11.00;11.00;;;;;;;;5017367;28;45179;-69
2022/10/10 08:55:22;;;;;;;;;16.67;14.67;;;;;;;;5014479;28;45455;-72
2022/10/10 08:57:54;;;;;;;;;14.00;12.33;;;;;;;;5016560;28;45648;-67
2022/10/10 09:00:21;;;;;;;;;10.67;10.67;;;;;;;;5016826;28;46515;-70
2022/10/10 09:02:55;;;;;;;;;12.00;10.67;;;;;;;;5017151;28;45411;-71
2022/10/10 09:05:31;;;;;;;;;15.00;14.00;;;;;;;;5017440;28;45376;-72
2022/10/10 09:08:14;;;;;;;;;15.67;11.33;;;;;;;;5017498;28;45352;-70
2022/10/10 09:10:40;;;;;;;;;12.67;12.00;;;;;;;;5015813;28;45376;-73
2022/10/10 09:13:17;;;;;;;;;17.67;13.00;;;;;;;;5014489;28;45484;-67
2022/10/10 09:15:57;;;;;;;;;9.00;9.00;;;;;;;;5017001;28;45483;-70
2022/10/10 09:18:22;;;;;;;;;12.33;12.00;;;;;;;;5017591;28;45844;-70
2022/10/10 09:20:55;;;;;;;;;13.67;12.33;;;;;;;;5019386;28;45364;-70
2022/10/10 09:23:32;;;;;;;;;14.33;11.00;;;;;;;;5013455;28;45315;-68
2022/10/10 09:26:15;;;;;;;;;13.67;12.33;;;;;;;;5005664;28;46045;-69
2022/10/10 09:28:43;;;;;;;;;13.33;11.67;;;;;;;;5015133;28;45921;-68
2022/10/10 09:31:21;;;;;;;;;13.00;11.33;;;;;;;;5006977;28;45417;-68
2022/10/10 09:33:56;;;;;;;;;15.00;13.00;;;;;;;;5010710;28;45444;-69
2022/10/10 09:36:30;;;;;;;;;12.00;10.33;;;;;;;;5019422;28;45634;-69
2022/10/10 09:38:58;;;;;;;;;11.33;10.67;;;;;;;;5018501;28;45487;-69
2022/10/10 09:41:28;;;;;;;;;15.33;11.67;;;;;;;;5016241;28;46310;-69
2022/10/10 09:43:55;;;;;;;;;12.00;12.00;;;;;;;;5017129;28;45565;-68
2022/10/10 09:46:20;;;;;;;;;16.33;13.00;;;;;;;;5013702;28;45496;-68
2022/10/10 09:48:46;;;;;;;;;35.33;31.33;;;;;;;;5018395;28;48396;-68
2022/10/10 09:51:13;;;;;;;;;10.67;8.00;;;;;;;;5013142;28;46579;-68
2022/10/10 09:53:39;;;;;;;;;10.67;9.67;;;;;;;;5016451;28;45448;-68
2022/10/10 09:56:06;;;;;;;;;15.00;15.00;;;;;;;;5008342;28;45577;-69
2022/10/10 09:58:37;;;;;;;;;17.33;14.00;;;;;;;;5018953;28;45769;-67
2022/10/10 10:01:14;;;;;;;;;12.00;10.67;;;;;;;;5017525;28;46991;-68
2022/10/10 10:03:39;;;;;;;;;17.00;12.67;;;;;;;;5012047;28;45412;-69
2022/10/10 10:06:08;;;;;;;;;17.33;16.33;;;;;;;;5019090;28;45496;-69
2022/10/10 10:08:35;;;;;;;;;14.67;10.67;;;;;;;;5016223;28;45543;-69
2022/10/10 10:11:01;;;;;;;;;18.33;15.67;;;;;;;;5006085;28;46286;-68
2022/10/10 10:13:36;;;;;;;;;15.00;14.67;;;;;;;;5019049;28;45398;-68
2022/10/10 10:16:03;;;;;;;;;17.00;14.33;;;;;;;;5019294;28;45434;-68
2022/10/10 10:18:29;;;;;;;;;12.67;11.67;;;;;;;;5019528;28;45461;-68
2022/10/10 10:21:01;;;;;;;;;12.00;11.67;;;;;;;;5018733;28;46376;-68
2022/10/10 10:23:33;;;;;;;;;16.33;15.00;;;;;;;;5018946;28;45445;-68
2022/10/10 10:26:05;;;;;;;;;15.33;15.00;;;;;;;;5018316;28;45369;-69
2022/10/10 10:28:30;;;;;;;;;13.33;12.33;;;;;;;;5017327;28;45492;-69
2022/10/10 10:30:56;;;;;;;;;49.67;41.00;;;;;;;;5018292;28;45368;-70
2022/10/10 10:33:22;;;;;;;;;18.33;15.67;;;;;;;;5018653;28;45382;-67
2022/10/10 10:35:56;;;;;;;;;15.33;15.33;;;;;;;;5014735;28;45560;-67
2022/10/10 10:38:24;;;;;;;;;14.67;13.00;;;;;;;;5018953;28;45607;-67
2022/10/10 10:41:01;;;;;;;;;18.00;16.00;;;;;;;;5018575;28;45575;-67
2022/10/10 10:43:26;;;;;;;;;23.67;23.00;;;;;;;;5018504;28;45472;-66
2022/10/10 10:45:57;;;;;;;;;21.00;17.00;;;;;;;;5018540;28;45420;-66
2022/10/10 10:48:28;;;;;;;;;17.33;13.67;;;;;;;;5018311;28;45541;-67
2022/10/10 10:50:55;;;;;;;;;15.67;15.67;;;;;;;;5016832;28;47420;-67
2022/10/10 10:53:20;;;;;;;;;19.00;16.00;;;;;;;;5018338;28;45500;-67
2022/10/10 10:55:48;;;;;;;;;19.33;16.67;;;;;;;;5018324;28;45445;-67
2022/10/10 10:58:32;;;;;;;;;16.33;14.67;;;;;;;;5018516;28;45438;-67
2022/10/10 11:01:01;;;;;;;;;22.67;16.67;;;;;;;;5018489;28;46075;-67
2022/10/10 11:03:33;;;;;;;;;20.67;16.00;;;;;;;;5018296;28;45402;-67
2022/10/10 11:06:04;;;;;;;;;16.00;14.00;;;;;;;;5018349;28;45353;-67
2022/10/10 11:08:29;;;;;;;;;22.00;18.00;;;;;;;;5018610;28;45524;-67
2022/10/10 11:10:57;;;;;;;;;21.00;17.67;;;;;;;;5015241;28;46593;-67
2022/10/10 11:13:39;;;;;;;;;18.00;15.00;;;;;;;;5018322;28;45365;-67
2022/10/10 11:16:17;;;;;;;;;17.33;12.67;;;;;;;;5017882;28;45389;-70
2022/10/10 11:19:03;;;;;;;;;13.00;12.00;;;;;;;;5018473;28;45443;-68
2022/10/10 11:21:30;;;;;;;;;49.33;35.33;;;;;;;;5017388;28;46098;-67
2022/10/10 11:24:00;;;;;;;;;37.00;33.67;;;;;;;;5017339;28;45440;-69
2022/10/10 11:26:28;;;;;;;;;52.00;38.67;;;;;;;;5014997;28;45384;-68
2022/10/10 11:29:01;;;;;;;;;17.00;14.00;;;;;;;;5017979;28;45435;-67
2022/10/10 11:31:33;;;;;;;;;21.00;14.00;;;;;;;;5017188;28;46418;-67
2022/10/10 11:34:01;;;;;;;;;18.33;17.33;;;;;;;;5017455;28;45510;-68
2022/10/10 11:36:33;;;;;;;;;14.00;11.33;;;;;;;;5018107;28;45454;-66
2022/10/10 11:39:11;;;;;;;;;7.00;6.33;;;;;;;;5018099;28;45358;-68
2022/10/10 11:41:43;;;;;;;;;16.00;10.67;;;;;;;;5017544;28;45392;-68
2022/10/10 11:44:21;;;;;;;;;13.00;11.33;;;;;;;;5014942;28;45399;-68
2022/10/10 11:46:59;;;;;;;;;15.00;13.67;;;;;;;;5017756;28;45398;-68
2022/10/10 11:49:34;;;;;;;;;15.33;13.67;;;;;;;;5017934;28;45838;-68
2022/10/10 11:52:21;;;;;;;;;14.00;11.33;;;;;;;;5017309;28;46589;-68
2022/10/10 11:54:56;;;;;;;;;13.67;12.67;;;;;;;;5016160;28;45420;-70
2022/10/10 11:57:42;;;;;;;;;14.67;12.67;;;;;;;;5017441;28;45554;-69
2022/10/10 12:00:14;;;;;;;;;13.67;11.67;;;;;;;;5015026;28;45455;-69
2022/10/10 12:02:40;;;;;;;;;11.67;11.67;;;;;;;;5006868;28;45857;-70
2022/10/10 12:05:16;;;;;;;;;21.00;14.33;;;;;;;;5016280;28;45515;-69
2022/10/10 12:08:02;;;;;;;;;17.67;16.00;;;;;;;;5013660;28;45508;-69
2022/10/10 12:10:34;;;;;;;;;9.67;9.67;;;;;;;;5011465;28;46636;-68
2022/10/10 12:13:18;;;;;;;;;12.00;9.00;;;;;;;;5016820;28;46555;-68
2022/10/10 12:15:43;;;;;;;;;11.00;8.00;;;;;;;;5012157;28;45456;-68
2022/10/10 12:18:21;;;;;;;;;5.67;5.67;;;;;;;;5016835;28;45855;-68
2022/10/10 12:20:46;;;;;;;;;10.33;8.00;;;;;;;;5013949;28;45452;-68
2022/10/10 12:23:15;;;;;;;;;8.67;7.00;;;;;;;;5017263;28;47551;-68
2022/10/10 12:25:41;;;;;;;;;8.00;8.00;;;;;;;;5012586;28;45404;-68
2022/10/10 12:28:13;;;;;;;;;9.67;6.33;;;;;;;;5015073;28;45587;-68
2022/10/10 12:30:53;;;;;;;;;7.00;7.00;;;;;;;;5015867;28;45516;-68
2022/10/10 12:33:20;;;;;;;;;9.67;8.33;;;;;;;;5017050;28;46554;-68
2022/10/10 12:35:45;;;;;;;;;13.33;11.00;;;;;;;;5016885;28;45369;-67
2022/10/10 12:38:14;;;;;;;;;12.33;10.67;;;;;;;;5017109;28;45383;-67
2022/10/10 12:40:51;;;;;;;;;12.00;10.00;;;;;;;;5017280;28;45452;-67
2022/10/10 12:43:21;;;;;;;;;19.00;17.33;;;;;;;;5016103;28;45464;-68
2022/10/10 12:46:22;;;;;;;;;18.67;17.00;;;;;;;;5011667;28;45583;-67
2022/10/10 12:49:06;;;;;;;;;20.00;18.00;;;;;;;;5014658;28;45420;-68
2022/10/10 12:51:33;;;;;;;;;22.00;19.33;;;;;;;;5014580;28;45406;-68
2022/10/10 12:54:00;;;;;;;;;20.33;15.67;;;;;;;;5014592;28;46193;-68
2022/10/10 12:56:34;;;;;;;;;23.33;22.33;;;;;;;;5012426;28;45472;-68
2022/10/10 12:59:00;;;;;;;;;28.67;21.00;;;;;;;;5007405;28;45419;-67
2022/10/10 13:01:28;;;;;;;;;23.00;18.33;;;;;;;;5014795;28;45491;-69
2022/10/10 13:03:54;;;;;;;;;26.33;23.67;;;;;;;;4997462;28;46569;-68
2022/10/10 13:06:38;;;;;;;;;23.00;19.33;;;;;;;;5014207;28;45468;-68
2022/10/10 13:09:07;;;;;;;;;23.00;19.33;;;;;;;;5012517;28;45492;-67
2022/10/10 13:11:48;;;;;;;;;20.00;17.00;;;;;;;;5014344;28;45563;-67
2022/10/10 13:14:13;;;;;;;;;31.00;28.33;;;;;;;;5013982;28;45453;-67
2022/10/10 13:16:41;;;;;;;;;30.67;25.00;;;;;;;;5013784;28;45489;-67
2022/10/10 13:19:15;;;;;;;;;24.00;22.33;;;;;;;;5014200;28;45391;-67
2022/10/10 13:21:40;;;;;;;;;16.67;16.33;;;;;;;;5014434;28;45483;-68
2022/10/10 13:24:06;;;;;;;;;18.67;14.00;;;;;;;;5016246;28;45383;-67
2022/10/10 13:26:36;;;;;;;;;18.67;14.33;;;;;;;;5008603;28;45445;-68
2022/10/10 13:29:19;;;;;;;;;16.00;12.00;;;;;;;;5015153;28;45502;-68
2022/10/10 13:31:45;;;;;;;;;13.33;13.00;;;;;;;;5016199;28;45432;-68
2022/10/10 13:34:14;;;;;;;;;14.33;13.00;;;;;;;;5015963;28;46491;-67
2022/10/10 13:36:40;;;;;;;;;27.67;27.67;;;;;;;;5016261;28;45385;-67
2022/10/10 13:39:05;;;;;;;;;17.33;13.67;;;;;;;;5015702;28;45545;-67
2022/10/10 13:41:30;;;;;;;;;11.67;8.67;;;;;;;;5016445;28;45374;-68
2022/10/10 13:43:55;;;;;;;;;5.50;5.50;;;;;;;;5015905;28;46468;-70
2022/10/10 13:46:30;;;;;;;;;8.25;6.00;;;;;;;;5012574;28;45531;-69
2022/10/10 13:48:56;;;;;;;;;10.33;6.00;;;;;;;;5010817;28;45564;-69
2022/10/10 13:51:40;;;;;;;;;12.00;10.67;;;;;;;;5016151;28;45449;-70
2022/10/10 13:54:25;;;;;;;;;34.67;27.33;;;;;;;;5014221;28;46636;-70
2022/10/10 13:56:50;;;;;;;;;9.00;6.33;;;;;;;;5009979;28;45394;-68
2022/10/10 13:59:16;;;;;;;;;6.00;6.00;;;;;;;;5012662;28;45491;-68
2022/10/10 14:01:43;;;;;;;;;3.75;3.25;;;;;;;;5011179;28;45507;-68
2022/10/10 14:04:08;;;;;;;;;4.25;2.75;;;;;;;;5015783;28;45906;-67
2022/10/10 14:06:34;;;;;;;;;5.33;5.00;;;;;;;;5012385;28;45627;-67
2022/10/10 14:09:11;;;;;;;;;5.00;5.00;;;;;;;;5013012;28;45464;-67
2022/10/10 14:11:39;;;;;;;;;7.00;6.00;;;;;;;;5014280;28;45439;-67
2022/10/10 14:14:07;;;;;;;;;8.75;5.25;;;;;;;;5005539;28;45593;-66
2022/10/10 14:16:32;;;;;;;;;5.00;5.00;;;;;;;;5011745;28;45427;-68
2022/10/10 14:18:57;;;;;;;;;1.25;1.25;;;;;;;;5017278;28;45468;-67
2022/10/10 14:21:22;;;;;;;;;5.50;4.25;;;;;;;;5018158;28;45278;-68
2022/10/10 14:23:48;;;;;;;;;2.00;2.00;;;;;;;;5018896;28;45670;-67
2022/10/10 14:26:15;;;;;;;;;4.00;3.25;;;;;;;;5018633;28;45431;-67
2022/10/10 14:28:40;;;;;;;;;3.25;2.25;;;;;;;;5017235;28;45425;-68
2022/10/10 14:31:06;;;;;;;;;2.50;2.00;;;;;;;;5007761;28;45524;-67